Аэропорт: Алыкель. Норильск

ICAO: UOOO

METAR:
2021-07-28 13:00:00
UOOO 281300Z 23004MPS 9999 BKN012 11/09 Q1005 R19/CLRD60 NOSIG RMK QFE737/0983
METAR:
2021-07-28 10:52:00
TAF UOOO 281052Z 2812/2912 19003G08MPS 9999 BKN012CB TEMPO 2812/2820 SCT006 BKN012CB TEMPO 2820/2901 0500 FG VV002 TEMPO 2910/2912 05008G13MPS